sensor_id;sensor_type;location;lat;lon;timestamp;P1;durP1;ratioP1;P2;durP2;ratioP2
24751;SDS011;27246;52.376;4.628;2022-09-09T00:09:06;4.88;;;3.47;;
24751;SDS011;27246;52.376;4.628;2022-09-09T00:24:41;4.38;;;2.97;;
24751;SDS011;27246;52.376;4.628;2022-09-09T00:34:59;6.22;;;2.88;;
24751;SDS011;27246;52.376;4.628;2022-09-09T00:40:08;4.13;;;3.60;;
24751;SDS011;27246;52.376;4.628;2022-09-09T00:45:38;6.03;;;4.22;;
24751;SDS011;27246;52.376;4.628;2022-09-09T00:50:55;4.72;;;2.90;;
24751;SDS011;27246;52.376;4.628;2022-09-09T00:56:18;7.15;;;3.70;;
24751;SDS011;27246;52.376;4.628;2022-09-09T01:01:24;4.70;;;3.03;;
24751;SDS011;27246;52.376;4.628;2022-09-09T01:06:34;5.28;;;3.60;;
24751;SDS011;27246;52.376;4.628;2022-09-09T01:16:47;5.40;;;4.30;;
24751;SDS011;27246;52.376;4.628;2022-09-09T01:21:53;7.97;;;4.97;;
24751;SDS011;27246;52.376;4.628;2022-09-09T01:27:05;4.93;;;4.40;;
24751;SDS011;27246;52.376;4.628;2022-09-09T01:32:43;7.82;;;5.45;;
24751;SDS011;27246;52.376;4.628;2022-09-09T01:37:48;8.93;;;5.50;;
24751;SDS011;27246;52.376;4.628;2022-09-09T01:42:50;8.43;;;5.30;;
24751;SDS011;27246;52.376;4.628;2022-09-09T01:47:53;6.95;;;5.90;;
24751;SDS011;27246;52.376;4.628;2022-09-09T01:53:14;9.45;;;6.60;;
24751;SDS011;27246;52.376;4.628;2022-09-09T02:09:35;8.73;;;6.75;;
24751;SDS011;27246;52.376;4.628;2022-09-09T02:14:41;8.80;;;7.40;;
24751;SDS011;27246;52.376;4.628;2022-09-09T02:19:49;9.95;;;8.45;;
24751;SDS011;27246;52.376;4.628;2022-09-09T02:25:10;9.07;;;8.13;;
24751;SDS011;27246;52.376;4.628;2022-09-09T02:30:17;10.85;;;8.15;;
24751;SDS011;27246;52.376;4.628;2022-09-09T02:35:26;11.50;;;9.02;;
24751;SDS011;27246;52.376;4.628;2022-09-09T02:40:32;9.77;;;8.45;;
24751;SDS011;27246;52.376;4.628;2022-09-09T02:45:41;13.98;;;8.95;;
24751;SDS011;27246;52.376;4.628;2022-09-09T03:01:10;9.93;;;8.70;;
24751;SDS011;27246;52.376;4.628;2022-09-09T03:06:12;10.77;;;8.65;;
24751;SDS011;27246;52.376;4.628;2022-09-09T03:11:17;8.40;;;7.50;;
24751;SDS011;27246;52.376;4.628;2022-09-09T03:16:19;8.07;;;7.30;;
24751;SDS011;27246;52.376;4.628;2022-09-09T03:21:24;8.75;;;6.60;;
24751;SDS011;27246;52.376;4.628;2022-09-09T03:26:28;7.22;;;6.32;;
24751;SDS011;27246;52.376;4.628;2022-09-09T03:31:31;6.70;;;5.85;;
24751;SDS011;27246;52.376;4.628;2022-09-09T03:36:33;7.45;;;6.10;;
24751;SDS011;27246;52.376;4.628;2022-09-09T03:41:35;6.75;;;5.88;;
24751;SDS011;27246;52.376;4.628;2022-09-09T03:46:39;9.73;;;6.25;;
24751;SDS011;27246;52.376;4.628;2022-09-09T03:51:41;11.15;;;5.80;;
24751;SDS011;27246;52.376;4.628;2022-09-09T03:56:46;6.43;;;5.75;;
24751;SDS011;27246;52.376;4.628;2022-09-09T04:01:49;7.95;;;5.53;;
24751;SDS011;27246;52.376;4.628;2022-09-09T04:06:50;7.05;;;5.80;;
24751;SDS011;27246;52.376;4.628;2022-09-09T04:11:52;8.73;;;6.82;;
24751;SDS011;27246;52.376;4.628;2022-09-09T04:16:54;7.53;;;5.95;;
24751;SDS011;27246;52.376;4.628;2022-09-09T04:21:57;8.38;;;5.75;;
24751;SDS011;27246;52.376;4.628;2022-09-09T04:26:59;7.43;;;6.30;;
24751;SDS011;27246;52.376;4.628;2022-09-09T04:32:03;7.40;;;6.30;;
24751;SDS011;27246;52.376;4.628;2022-09-09T04:37:04;7.82;;;6.43;;
24751;SDS011;27246;52.376;4.628;2022-09-09T04:42:07;10.20;;;7.88;;
24751;SDS011;27246;52.376;4.628;2022-09-09T04:47:10;6.47;;;5.85;;
24751;SDS011;27246;52.376;4.628;2022-09-09T04:52:12;6.70;;;5.97;;
24751;SDS011;27246;52.376;4.628;2022-09-09T04:57:14;8.07;;;4.93;;
24751;SDS011;27246;52.376;4.628;2022-09-09T05:02:20;6.88;;;5.18;;
24751;SDS011;27246;52.376;4.628;2022-09-09T05:07:23;5.63;;;3.85;;
24751;SDS011;27246;52.376;4.628;2022-09-09T05:12:27;8.00;;;4.68;;
24751;SDS011;27246;52.376;4.628;2022-09-09T05:17:29;7.55;;;4.15;;
24751;SDS011;27246;52.376;4.628;2022-09-09T05:22:31;9.20;;;4.82;;
24751;SDS011;27246;52.376;4.628;2022-09-09T05:27:36;5.55;;;3.90;;
24751;SDS011;27246;52.376;4.628;2022-09-09T05:32:38;3.72;;;3.33;;
24751;SDS011;27246;52.376;4.628;2022-09-09T05:37:40;5.88;;;3.85;;
24751;SDS011;27246;52.376;4.628;2022-09-09T05:42:42;5.45;;;3.22;;
24751;SDS011;27246;52.376;4.628;2022-09-09T05:47:44;5.90;;;4.10;;
24751;SDS011;27246;52.376;4.628;2022-09-09T05:52:48;4.65;;;3.05;;
24751;SDS011;27246;52.376;4.628;2022-09-09T05:57:51;4.55;;;2.90;;
24751;SDS011;27246;52.376;4.628;2022-09-09T06:02:54;6.70;;;3.90;;
24751;SDS011;27246;52.376;4.628;2022-09-09T06:07:56;6.15;;;3.05;;
24751;SDS011;27246;52.376;4.628;2022-09-09T06:12:58;3.45;;;2.70;;
24751;SDS011;27246;52.376;4.628;2022-09-09T06:18:00;3.88;;;2.75;;
24751;SDS011;27246;52.376;4.628;2022-09-09T06:23:03;5.15;;;2.30;;
24751;SDS011;27246;52.376;4.628;2022-09-09T06:28:05;8.02;;;3.08;;
24751;SDS011;27246;52.376;4.628;2022-09-09T06:33:07;3.60;;;2.40;;
24751;SDS011;27246;52.376;4.628;2022-09-09T06:38:09;4.72;;;2.80;;
24751;SDS011;27246;52.376;4.628;2022-09-09T06:43:11;3.72;;;2.35;;
24751;SDS011;27246;52.376;4.628;2022-09-09T06:48:20;5.30;;;2.70;;
24751;SDS011;27246;52.376;4.628;2022-09-09T06:53:23;3.92;;;2.58;;
24751;SDS011;27246;52.376;4.628;2022-09-09T06:58:25;5.07;;;3.00;;
24751;SDS011;27246;52.376;4.628;2022-09-09T07:03:29;5.90;;;2.13;;
24751;SDS011;27246;52.376;4.628;2022-09-09T07:08:35;5.18;;;2.45;;
24751;SDS011;27246;52.376;4.628;2022-09-09T07:13:37;5.22;;;2.63;;
24751;SDS011;27246;52.376;4.628;2022-09-09T07:18:41;4.63;;;2.38;;
24751;SDS011;27246;52.376;4.628;2022-09-09T07:23:43;4.78;;;2.70;;
24751;SDS011;27246;52.376;4.628;2022-09-09T07:28:45;5.70;;;2.72;;
24751;SDS011;27246;52.376;4.628;2022-09-09T07:33:48;8.57;;;3.45;;
24751;SDS011;27246;52.376;4.628;2022-09-09T07:38:55;6.55;;;3.65;;
24751;SDS011;27246;52.376;4.628;2022-09-09T07:43:59;8.32;;;3.50;;
24751;SDS011;27246;52.376;4.628;2022-09-09T07:49:05;6.50;;;3.10;;
24751;SDS011;27246;52.376;4.628;2022-09-09T07:54:09;6.03;;;3.50;;
24751;SDS011;27246;52.376;4.628;2022-09-09T07:59:16;6.70;;;3.47;;
24751;SDS011;27246;52.376;4.628;2022-09-09T08:04:21;8.18;;;3.20;;
24751;SDS011;27246;52.376;4.628;2022-09-09T08:09:25;8.95;;;3.47;;
24751;SDS011;27246;52.376;4.628;2022-09-09T08:14:37;7.32;;;3.55;;
24751;SDS011;27246;52.376;4.628;2022-09-09T08:19:38;5.30;;;2.97;;
24751;SDS011;27246;52.376;4.628;2022-09-09T08:24:48;7.63;;;4.15;;
24751;SDS011;27246;52.376;4.628;2022-09-09T08:29:51;6.95;;;4.47;;
24751;SDS011;27246;52.376;4.628;2022-09-09T08:34:53;6.85;;;3.47;;
24751;SDS011;27246;52.376;4.628;2022-09-09T08:39:57;10.70;;;4.38;;
24751;SDS011;27246;52.376;4.628;2022-09-09T08:50:32;8.00;;;3.90;;
24751;SDS011;27246;52.376;4.628;2022-09-09T08:55:49;10.13;;;3.47;;
24751;SDS011;27246;52.376;4.628;2022-09-09T09:12:01;8.05;;;4.10;;
24751;SDS011;27246;52.376;4.628;2022-09-09T09:17:10;6.97;;;4.45;;
24751;SDS011;27246;52.376;4.628;2022-09-09T09:27:40;7.70;;;4.05;;
24751;SDS011;27246;52.376;4.628;2022-09-09T09:32:53;10.77;;;4.47;;
24751;SDS011;27246;52.376;4.628;2022-09-09T09:38:00;6.93;;;4.60;;
24751;SDS011;27246;52.376;4.628;2022-09-09T09:48:34;8.50;;;4.13;;
24751;SDS011;27246;52.376;4.628;2022-09-09T09:53:36;7.20;;;3.50;;
24751;SDS011;27246;52.376;4.628;2022-09-09T10:03:53;6.45;;;4.00;;
24751;SDS011;27246;52.376;4.628;2022-09-09T10:08:58;5.47;;;4.38;;
24751;SDS011;27246;52.376;4.628;2022-09-09T10:14:04;10.85;;;4.43;;
24751;SDS011;27246;52.376;4.628;2022-09-09T10:19:13;9.20;;;4.07;;
24751;SDS011;27246;52.376;4.628;2022-09-09T10:24:31;7.70;;;4.28;;
24751;SDS011;27246;52.376;4.628;2022-09-09T10:40:37;7.22;;;3.30;;
24751;SDS011;27246;52.376;4.628;2022-09-09T10:51:11;6.18;;;3.55;;
24751;SDS011;27246;52.376;4.628;2022-09-09T10:56:15;6.65;;;3.03;;
24751;SDS011;27246;52.376;4.628;2022-09-09T11:01:31;5.38;;;3.15;;
24751;SDS011;27246;52.376;4.628;2022-09-09T11:06:39;6.82;;;2.85;;
24751;SDS011;27246;52.376;4.628;2022-09-09T11:11:54;6.97;;;3.00;;
24751;SDS011;27246;52.376;4.628;2022-09-09T11:22:04;5.30;;;3.25;;
24751;SDS011;27246;52.376;4.628;2022-09-09T11:27:36;7.82;;;3.17;;
24751;SDS011;27246;52.376;4.628;2022-09-09T11:33:02;7.32;;;3.53;;
24751;SDS011;27246;52.376;4.628;2022-09-09T11:43:52;8.68;;;3.42;;
24751;SDS011;27246;52.376;4.628;2022-09-09T11:48:58;4.63;;;2.47;;
24751;SDS011;27246;52.376;4.628;2022-09-09T11:54:02;6.05;;;2.67;;
24751;SDS011;27246;52.376;4.628;2022-09-09T11:59:32;3.40;;;2.30;;
24751;SDS011;27246;52.376;4.628;2022-09-09T12:04:35;5.28;;;2.47;;
24751;SDS011;27246;52.376;4.628;2022-09-09T12:09:58;4.15;;;2.63;;
24751;SDS011;27246;52.376;4.628;2022-09-09T12:30:41;6.75;;;2.25;;
24751;SDS011;27246;52.376;4.628;2022-09-09T12:35:58;4.65;;;2.00;;
24751;SDS011;27246;52.376;4.628;2022-09-09T12:41:01;4.05;;;2.08;;
24751;SDS011;27246;52.376;4.628;2022-09-09T12:46:06;6.50;;;2.70;;
24751;SDS011;27246;52.376;4.628;2022-09-09T12:51:21;5.25;;;3.00;;
24751;SDS011;27246;52.376;4.628;2022-09-09T12:56:33;4.95;;;3.03;;
24751;SDS011;27246;52.376;4.628;2022-09-09T13:01:36;6.07;;;3.00;;
24751;SDS011;27246;52.376;4.628;2022-09-09T13:06:38;3.92;;;2.72;;
24751;SDS011;27246;52.376;4.628;2022-09-09T13:11:41;3.58;;;2.60;;
24751;SDS011;27246;52.376;4.628;2022-09-09T13:16:55;4.33;;;3.13;;
24751;SDS011;27246;52.376;4.628;2022-09-09T13:38:14;3.88;;;2.60;;
24751;SDS011;27246;52.376;4.628;2022-09-09T13:43:20;3.22;;;2.67;;
24751;SDS011;27246;52.376;4.628;2022-09-09T13:48:24;3.20;;;2.42;;
24751;SDS011;27246;52.376;4.628;2022-09-09T13:53:27;6.07;;;2.88;;
24751;SDS011;27246;52.376;4.628;2022-09-09T13:58:29;2.88;;;2.17;;
24751;SDS011;27246;52.376;4.628;2022-09-09T14:03:31;6.20;;;2.65;;
24751;SDS011;27246;52.376;4.628;2022-09-09T14:08:32;4.38;;;3.15;;
24751;SDS011;27246;52.376;4.628;2022-09-09T14:13:39;4.47;;;2.85;;
24751;SDS011;27246;52.376;4.628;2022-09-09T14:18:41;7.07;;;2.88;;
24751;SDS011;27246;52.376;4.628;2022-09-09T14:23:43;2.58;;;2.08;;
24751;SDS011;27246;52.376;4.628;2022-09-09T14:28:45;2.95;;;1.90;;
24751;SDS011;27246;52.376;4.628;2022-09-09T14:33:56;4.40;;;2.33;;
24751;SDS011;27246;52.376;4.628;2022-09-09T14:38:58;2.53;;;2.00;;
24751;SDS011;27246;52.376;4.628;2022-09-09T14:43:59;3.38;;;2.30;;
24751;SDS011;27246;52.376;4.628;2022-09-09T14:49:01;2.85;;;1.58;;
24751;SDS011;27246;52.376;4.628;2022-09-09T14:54:03;2.92;;;1.67;;
24751;SDS011;27246;52.376;4.628;2022-09-09T14:59:05;3.00;;;2.25;;
24751;SDS011;27246;52.376;4.628;2022-09-09T15:04:07;4.38;;;1.75;;
24751;SDS011;27246;52.376;4.628;2022-09-09T15:09:09;3.10;;;1.50;;
24751;SDS011;27246;52.376;4.628;2022-09-09T15:14:11;2.85;;;1.60;;
24751;SDS011;27246;52.376;4.628;2022-09-09T15:19:13;3.75;;;1.80;;
24751;SDS011;27246;52.376;4.628;2022-09-09T15:24:15;1.88;;;1.00;;
24751;SDS011;27246;52.376;4.628;2022-09-09T15:29:18;2.55;;;1.45;;
24751;SDS011;27246;52.376;4.628;2022-09-09T15:34:27;3.30;;;1.55;;
24751;SDS011;27246;52.376;4.628;2022-09-09T15:39:28;3.58;;;1.73;;
24751;SDS011;27246;52.376;4.628;2022-09-09T15:44:37;2.88;;;1.38;;
24751;SDS011;27246;52.376;4.628;2022-09-09T15:49:40;4.70;;;1.75;;
24751;SDS011;27246;52.376;4.628;2022-09-09T15:54:41;3.95;;;1.73;;
24751;SDS011;27246;52.376;4.628;2022-09-09T15:59:44;3.30;;;1.27;;
24751;SDS011;27246;52.376;4.628;2022-09-09T16:04:46;5.40;;;1.23;;
24751;SDS011;27246;52.376;4.628;2022-09-09T16:09:48;4.90;;;1.70;;
24751;SDS011;27246;52.376;4.628;2022-09-09T16:14:52;8.77;;;3.85;;
24751;SDS011;27246;52.376;4.628;2022-09-09T16:19:53;7.35;;;2.03;;
24751;SDS011;27246;52.376;4.628;2022-09-09T16:24:55;6.60;;;2.17;;
24751;SDS011;27246;52.376;4.628;2022-09-09T16:29:57;7.05;;;2.15;;
24751;SDS011;27246;52.376;4.628;2022-09-09T16:34:59;7.03;;;2.38;;
24751;SDS011;27246;52.376;4.628;2022-09-09T16:40:00;4.55;;;2.80;;
24751;SDS011;27246;52.376;4.628;2022-09-09T16:45:04;4.55;;;2.53;;
24751;SDS011;27246;52.376;4.628;2022-09-09T16:50:08;7.53;;;2.47;;
24751;SDS011;27246;52.376;4.628;2022-09-09T16:55:10;4.32;;;1.85;;
24751;SDS011;27246;52.376;4.628;2022-09-09T17:00:11;5.13;;;2.80;;
24751;SDS011;27246;52.376;4.628;2022-09-09T17:05:13;4.32;;;1.88;;
24751;SDS011;27246;52.376;4.628;2022-09-09T17:10:15;6.32;;;1.98;;
24751;SDS011;27246;52.376;4.628;2022-09-09T17:15:17;3.40;;;1.52;;
24751;SDS011;27246;52.376;4.628;2022-09-09T17:20:19;5.65;;;1.90;;
24751;SDS011;27246;52.376;4.628;2022-09-09T17:25:21;4.85;;;2.20;;
24751;SDS011;27246;52.376;4.628;2022-09-09T17:30:26;6.50;;;2.63;;
24751;SDS011;27246;52.376;4.628;2022-09-09T17:35:29;4.97;;;2.88;;
24751;SDS011;27246;52.376;4.628;2022-09-09T17:40:31;7.32;;;2.38;;
24751;SDS011;27246;52.376;4.628;2022-09-09T17:45:33;4.70;;;3.65;;
24751;SDS011;27246;52.376;4.628;2022-09-09T17:50:34;4.40;;;2.35;;
24751;SDS011;27246;52.376;4.628;2022-09-09T17:55:36;4.03;;;1.70;;
24751;SDS011;27246;52.376;4.628;2022-09-09T18:00:37;5.45;;;2.47;;
24751;SDS011;27246;52.376;4.628;2022-09-09T18:05:39;6.00;;;2.20;;
24751;SDS011;27246;52.376;4.628;2022-09-09T18:10:51;4.97;;;2.55;;
24751;SDS011;27246;52.376;4.628;2022-09-09T18:15:56;4.45;;;2.30;;
24751;SDS011;27246;52.376;4.628;2022-09-09T18:21:02;7.13;;;3.30;;
24751;SDS011;27246;52.376;4.628;2022-09-09T18:26:11;6.28;;;2.65;;
24751;SDS011;27246;52.376;4.628;2022-09-09T18:31:14;6.05;;;4.00;;
24751;SDS011;27246;52.376;4.628;2022-09-09T18:36:21;5.20;;;2.92;;
24751;SDS011;27246;52.376;4.628;2022-09-09T18:41:27;7.00;;;3.42;;
24751;SDS011;27246;52.376;4.628;2022-09-09T18:46:32;4.60;;;3.70;;
24751;SDS011;27246;52.376;4.628;2022-09-09T18:51:35;6.63;;;4.25;;
24751;SDS011;27246;52.376;4.628;2022-09-09T18:56:37;7.28;;;4.53;;
24751;SDS011;27246;52.376;4.628;2022-09-09T19:01:40;6.53;;;4.93;;
24751;SDS011;27246;52.376;4.628;2022-09-09T19:06:43;10.15;;;5.22;;
24751;SDS011;27246;52.376;4.628;2022-09-09T19:11:47;7.57;;;5.38;;
24751;SDS011;27246;52.376;4.628;2022-09-09T19:16:48;7.18;;;5.10;;
24751;SDS011;27246;52.376;4.628;2022-09-09T19:21:52;6.28;;;4.45;;
24751;SDS011;27246;52.376;4.628;2022-09-09T19:26:59;7.82;;;5.53;;
24751;SDS011;27246;52.376;4.628;2022-09-09T19:32:03;7.13;;;4.85;;
24751;SDS011;27246;52.376;4.628;2022-09-09T19:37:25;10.07;;;5.03;;
24751;SDS011;27246;52.376;4.628;2022-09-09T19:42:27;6.35;;;4.45;;
24751;SDS011;27246;52.376;4.628;2022-09-09T19:47:30;4.88;;;4.03;;
24751;SDS011;27246;52.376;4.628;2022-09-09T19:52:32;5.53;;;3.30;;
24751;SDS011;27246;52.376;4.628;2022-09-09T19:57:33;5.63;;;3.30;;
24751;SDS011;27246;52.376;4.628;2022-09-09T20:02:35;3.60;;;2.70;;
24751;SDS011;27246;52.376;4.628;2022-09-09T20:07:37;8.65;;;3.03;;
24751;SDS011;27246;52.376;4.628;2022-09-09T20:12:39;6.60;;;2.50;;
24751;SDS011;27246;52.376;4.628;2022-09-09T20:17:41;6.00;;;3.25;;
24751;SDS011;27246;52.376;4.628;2022-09-09T20:22:43;5.10;;;2.75;;
24751;SDS011;27246;52.376;4.628;2022-09-09T20:27:44;13.02;;;4.40;;
24751;SDS011;27246;52.376;4.628;2022-09-09T20:32:46;5.97;;;2.95;;
24751;SDS011;27246;52.376;4.628;2022-09-09T20:37:48;4.53;;;2.60;;
24751;SDS011;27246;52.376;4.628;2022-09-09T20:42:49;4.18;;;2.45;;
24751;SDS011;27246;52.376;4.628;2022-09-09T20:47:51;4.95;;;2.50;;
24751;SDS011;27246;52.376;4.628;2022-09-09T20:52:54;5.45;;;2.42;;
24751;SDS011;27246;52.376;4.628;2022-09-09T20:57:56;5.20;;;2.20;;
24751;SDS011;27246;52.376;4.628;2022-09-09T21:02:58;4.55;;;2.60;;
24751;SDS011;27246;52.376;4.628;2022-09-09T21:08:00;3.22;;;2.03;;
24751;SDS011;27246;52.376;4.628;2022-09-09T21:13:02;9.02;;;2.67;;
24751;SDS011;27246;52.376;4.628;2022-09-09T21:18:04;3.13;;;2.10;;
24751;SDS011;27246;52.376;4.628;2022-09-09T21:23:06;5.82;;;2.08;;
24751;SDS011;27246;52.376;4.628;2022-09-09T21:28:07;6.07;;;2.20;;
24751;SDS011;27246;52.376;4.628;2022-09-09T21:33:10;7.07;;;2.90;;
24751;SDS011;27246;52.376;4.628;2022-09-09T21:38:18;6.28;;;1.90;;
24751;SDS011;27246;52.376;4.628;2022-09-09T21:43:24;7.65;;;2.22;;
24751;SDS011;27246;52.376;4.628;2022-09-09T21:48:27;4.85;;;2.30;;
24751;SDS011;27246;52.376;4.628;2022-09-09T21:53:29;3.60;;;2.42;;
24751;SDS011;27246;52.376;4.628;2022-09-09T21:58:32;6.20;;;2.95;;
24751;SDS011;27246;52.376;4.628;2022-09-09T22:03:35;5.25;;;2.70;;
24751;SDS011;27246;52.376;4.628;2022-09-09T22:08:41;4.65;;;4.10;;
24751;SDS011;27246;52.376;4.628;2022-09-09T22:13:44;5.68;;;3.80;;
24751;SDS011;27246;52.376;4.628;2022-09-09T22:18:50;5.80;;;4.95;;
24751;SDS011;27246;52.376;4.628;2022-09-09T22:23:58;7.10;;;5.10;;
24751;SDS011;27246;52.376;4.628;2022-09-09T22:29:02;7.93;;;4.45;;
24751;SDS011;27246;52.376;4.628;2022-09-09T22:34:05;7.13;;;4.90;;
24751;SDS011;27246;52.376;4.628;2022-09-09T22:39:10;8.40;;;5.97;;
24751;SDS011;27246;52.376;4.628;2022-09-09T22:44:11;9.82;;;6.85;;
24751;SDS011;27246;52.376;4.628;2022-09-09T22:49:13;6.80;;;4.90;;
24751;SDS011;27246;52.376;4.628;2022-09-09T22:54:15;6.95;;;5.40;;
24751;SDS011;27246;52.376;4.628;2022-09-09T22:59:21;5.90;;;4.45;;
24751;SDS011;27246;52.376;4.628;2022-09-09T23:04:23;4.53;;;4.10;;
24751;SDS011;27246;52.376;4.628;2022-09-09T23:09:25;6.63;;;5.50;;
24751;SDS011;27246;52.376;4.628;2022-09-09T23:14:27;3.88;;;2.30;;
24751;SDS011;27246;52.376;4.628;2022-09-09T23:19:30;5.85;;;2.78;;
24751;SDS011;27246;52.376;4.628;2022-09-09T23:24:31;2.47;;;1.85;;
24751;SDS011;27246;52.376;4.628;2022-09-09T23:29:33;3.45;;;2.17;;
24751;SDS011;27246;52.376;4.628;2022-09-09T23:34:35;2.75;;;2.47;;
24751;SDS011;27246;52.376;4.628;2022-09-09T23:39:37;5.30;;;3.10;;
24751;SDS011;27246;52.376;4.628;2022-09-09T23:44:40;3.35;;;2.85;;
24751;SDS011;27246;52.376;4.628;2022-09-09T23:49:43;4.80;;;3.60;;
24751;SDS011;27246;52.376;4.628;2022-09-09T23:54:45;4.30;;;3.58;;
24751;SDS011;27246;52.376;4.628;2022-09-09T23:59:46;6.53;;;3.03;;
